Skip Navigation LinksHome page > Weather > Current weather Skip Navigation Links

Current Weather

New Tokyo International (Narita), Tokyo

For information only: do not use for flight planning or navigation.
Latest weather
Observation time Sunday, April 20, 2014 3:00 PM JST
Local time Sunday, April 20, 2014 3:40 PM JST
Flight conditions Visual Meteorological Conditions
Winds
Wind direction Southeast (140°)
Wind speed 7 mph
Visibility 6.2 mi.
Sky condition
Ceiling 3,500 ft. broken clouds
Cloud layer few clouds 2,500 ft.
Cloud layer broken clouds 3,500 ft.
Temperature 54°F
Dewpoint 39°F
Altimeter 30.18 in.Hg
Derived measurements
Relative humidity 58%
Density altitude -532 ft.
Remarks
No significant changes expected in the next two hours.
METAR RJAA 200600Z 14006KT 9999 FEW025 BKN035 12/04 Q1022 NOSIG RMK 1CU025 7SC035 A3018

Settings

Location code

InnerDrive.Weather 4.0.4869.0 Release CLR 4.0.30319.18449
Copyright ©2013 Inner Drive Technology. All rights reserved. Portions Copyright ©1986-2013 David Braverman.

Find weather

Site navigation


Skip Navigation Links

Place info

Page info

PayPal - The safer, easier way to pay online!

Return home.

Copyright ©2014 Inner Drive Technology. Purveyors of fine, hand-crafted computer software. Page printed 2014-04-20T06:40:43 UTC.